createdAt,value
2022-08-26T00:00:40.992Z,17.92
2022-08-26T00:01:29.626Z,17.91
2022-08-26T00:02:17.028Z,17.87
2022-08-26T00:03:07.848Z,17.88
2022-08-26T00:03:56.766Z,17.81
2022-08-26T00:04:44.692Z,17.82
2022-08-26T00:05:31.855Z,17.82
2022-08-26T00:06:20.897Z,17.82
2022-08-26T00:07:08.191Z,17.76
2022-08-26T00:07:56.122Z,17.74
2022-08-26T00:08:43.471Z,17.74
2022-08-26T00:09:33.842Z,17.73
2022-08-26T00:10:26.272Z,17.75
2022-08-26T00:11:13.942Z,17.75
2022-08-26T00:12:00.941Z,17.70
2022-08-26T00:12:48.101Z,17.68
2022-08-26T00:13:35.342Z,17.72
2022-08-26T00:14:28.260Z,17.72
2022-08-26T00:15:19.171Z,17.74
2022-08-26T00:16:08.574Z,17.69
2022-08-26T00:16:59.281Z,17.75
2022-08-26T00:17:46.904Z,17.77
2022-08-26T00:18:38.804Z,17.71
2022-08-26T00:19:28.418Z,17.73
2022-08-26T00:20:18.881Z,17.78
2022-08-26T00:21:06.455Z,17.79
2022-08-26T00:21:53.742Z,17.79
2022-08-26T00:22:40.912Z,17.74
2022-08-26T00:23:28.857Z,17.83
2022-08-26T00:24:16.392Z,17.75
2022-08-26T00:25:05.920Z,17.79
2022-08-26T00:25:53.622Z,17.73
2022-08-26T00:26:41.435Z,17.69
2022-08-26T00:27:28.452Z,17.68
2022-08-26T00:28:15.383Z,17.67
2022-08-26T00:29:06.231Z,17.67
2022-08-26T00:29:53.062Z,17.66
2022-08-26T00:30:40.383Z,17.66
2022-08-26T00:31:27.435Z,17.65
2022-08-26T00:32:14.391Z,17.67
2022-08-26T00:33:02.433Z,17.66
2022-08-26T00:33:49.563Z,17.61
2022-08-26T00:34:36.612Z,17.65
2022-08-26T00:35:24.592Z,17.63
2022-08-26T00:36:20.433Z,17.64
2022-08-26T00:37:08.962Z,17.65
2022-08-26T00:37:57.991Z,17.61
2022-08-26T00:38:44.854Z,17.60
2022-08-26T00:39:32.872Z,17.63
2022-08-26T00:40:25.645Z,17.61
2022-08-26T00:41:12.911Z,17.54
2022-08-26T00:42:00.771Z,17.51
2022-08-26T00:42:50.132Z,17.56
2022-08-26T00:43:46.287Z,17.61
2022-08-26T00:44:34.833Z,17.62
2022-08-26T00:45:22.001Z,17.64
2022-08-26T00:46:18.952Z,17.63
2022-08-26T00:47:08.462Z,17.60
2022-08-26T00:48:00.991Z,17.64
2022-08-26T00:48:53.866Z,17.63
2022-08-26T00:49:44.974Z,17.61
2022-08-26T00:50:36.752Z,17.64
2022-08-26T00:51:29.789Z,17.57
2022-08-26T00:52:20.121Z,17.49
2022-08-26T00:53:24.162Z,17.51
2022-08-26T00:54:13.245Z,17.51
2022-08-26T00:55:04.871Z,17.53
2022-08-26T00:56:08.288Z,17.51
2022-08-26T00:56:56.211Z,17.50
2022-08-26T00:57:44.401Z,17.47
2022-08-26T00:58:34.104Z,17.48
2022-08-26T00:59:21.912Z,17.42
2022-08-26T01:00:16.884Z,17.43
2022-08-26T01:01:04.426Z,17.45
2022-08-26T01:01:51.862Z,17.44
2022-08-26T01:02:39.459Z,17.41
2022-08-26T01:03:35.052Z,17.43
2022-08-26T01:04:23.521Z,17.44
2022-08-26T01:05:13.208Z,17.43
2022-08-26T01:06:01.702Z,17.45
2022-08-26T01:06:50.464Z,17.44
2022-08-26T01:07:39.622Z,17.42
2022-08-26T01:08:27.422Z,17.44
2022-08-26T01:09:14.811Z,17.40
2022-08-26T01:10:04.172Z,17.39
2022-08-26T01:10:52.532Z,17.36
2022-08-26T01:11:42.991Z,17.40
2022-08-26T01:12:34.381Z,17.38
2022-08-26T01:13:21.603Z,17.39
2022-08-26T01:14:08.913Z,17.39
2022-08-26T01:14:56.323Z,17.38
2022-08-26T01:15:46.742Z,17.38
2022-08-26T01:16:33.654Z,17.40
2022-08-26T01:17:20.605Z,17.37
2022-08-26T01:18:08.093Z,17.34
2022-08-26T01:18:59.582Z,17.33
2022-08-26T01:19:50.741Z,17.37
2022-08-26T01:21:03.823Z,17.37
2022-08-26T01:21:56.952Z,17.38
2022-08-26T01:23:04.148Z,17.33
2022-08-26T01:23:52.282Z,17.32
2022-08-26T01:24:44.742Z,17.30
2022-08-26T01:25:34.122Z,17.26
2022-08-26T01:26:34.071Z,17.29
2022-08-26T01:27:22.221Z,17.32
2022-08-26T01:28:17.566Z,17.28
2022-08-26T01:29:06.243Z,17.26
2022-08-26T01:29:53.211Z,17.27
2022-08-26T01:30:41.012Z,17.31
2022-08-26T01:31:31.688Z,17.27
2022-08-26T01:32:20.473Z,17.26
2022-08-26T01:33:11.894Z,17.25
2022-08-26T01:34:35.422Z,17.25
2022-08-26T01:35:22.462Z,17.25
2022-08-26T01:36:09.572Z,17.28
2022-08-26T01:37:07.791Z,17.26
2022-08-26T01:37:58.623Z,17.25
2022-08-26T01:38:45.721Z,17.26
2022-08-26T01:39:33.671Z,17.24
2022-08-26T01:40:26.948Z,17.26
2022-08-26T01:41:16.285Z,17.25
2022-08-26T01:42:10.782Z,17.26
2022-08-26T01:42:58.871Z,17.26
2022-08-26T01:43:47.382Z,17.27
2022-08-26T01:44:41.074Z,17.22
2022-08-26T01:45:31.109Z,17.27
2022-08-26T01:46:19.185Z,17.23
2022-08-26T01:47:06.933Z,17.21
2022-08-26T01:47:56.765Z,17.20
2022-08-26T01:48:48.062Z,17.21
2022-08-26T01:49:41.149Z,17.20
2022-08-26T01:50:33.144Z,17.15
2022-08-26T01:51:20.703Z,17.12
2022-08-26T01:52:09.221Z,17.19
2022-08-26T01:53:04.093Z,17.17
2022-08-26T01:53:51.151Z,17.17
2022-08-26T01:54:39.619Z,17.22
2022-08-26T01:55:32.179Z,17.22
2022-08-26T01:56:22.392Z,17.21
2022-08-26T01:57:09.591Z,17.20
2022-08-26T01:57:57.561Z,17.22
2022-08-26T01:58:55.560Z,17.20
2022-08-26T01:59:43.195Z,17.17
2022-08-26T02:00:30.102Z,17.19
2022-08-26T02:01:17.204Z,17.19
2022-08-26T02:02:05.130Z,17.18
2022-08-26T02:03:13.750Z,17.20
2022-08-26T02:04:22.040Z,17.20
2022-08-26T02:05:13.321Z,17.13
2022-08-26T02:06:04.171Z,17.15
2022-08-26T02:06:51.590Z,17.17
2022-08-26T02:07:40.016Z,17.19
2022-08-26T02:08:33.301Z,17.19
2022-08-26T02:09:20.383Z,17.21
2022-08-26T02:10:10.381Z,17.23
2022-08-26T02:10:57.417Z,17.26
2022-08-26T02:11:45.333Z,17.26
2022-08-26T02:12:32.200Z,17.27
2022-08-26T02:13:19.091Z,17.26
2022-08-26T02:14:11.552Z,17.26
2022-08-26T02:15:01.408Z,17.29
2022-08-26T02:15:53.529Z,17.31
2022-08-26T02:16:42.765Z,17.33
2022-08-26T02:17:34.666Z,17.35
2022-08-26T02:18:22.877Z,17.34
2022-08-26T02:19:17.039Z,17.36
2022-08-26T02:20:05.061Z,17.35
2022-08-26T02:20:53.162Z,17.34
2022-08-26T02:21:41.291Z,17.37
2022-08-26T02:22:29.020Z,17.32
2022-08-26T02:23:15.951Z,17.29
2022-08-26T02:24:12.032Z,17.29
2022-08-26T02:25:05.611Z,17.32
2022-08-26T02:26:04.891Z,17.29
2022-08-26T02:26:52.120Z,17.29
2022-08-26T02:27:39.093Z,17.28
2022-08-26T02:28:28.354Z,17.28
2022-08-26T02:29:37.051Z,17.24
2022-08-26T02:30:28.539Z,17.27
2022-08-26T02:31:15.548Z,17.25
2022-08-26T02:32:02.661Z,17.25
2022-08-26T02:32:51.682Z,17.24
2022-08-26T02:33:43.011Z,17.26
2022-08-26T02:34:35.251Z,17.27
2022-08-26T02:35:23.832Z,17.32
2022-08-26T02:36:12.147Z,17.29
2022-08-26T02:37:02.132Z,17.29
2022-08-26T02:37:50.561Z,17.28
2022-08-26T02:38:37.512Z,17.25
2022-08-26T02:39:27.223Z,17.24
2022-08-26T02:40:16.101Z,17.24
2022-08-26T02:41:03.407Z,17.26
2022-08-26T02:41:50.552Z,17.29
2022-08-26T02:42:37.838Z,17.29
2022-08-26T02:43:31.504Z,17.25
2022-08-26T02:44:19.840Z,17.22
2022-08-26T02:45:07.732Z,17.21
2022-08-26T02:45:54.802Z,17.21
2022-08-26T02:46:42.190Z,17.22
2022-08-26T02:47:34.321Z,17.19
2022-08-26T02:48:21.751Z,17.19
2022-08-26T02:49:09.972Z,17.20
2022-08-26T02:49:56.773Z,17.18
2022-08-26T02:50:44.013Z,17.19
2022-08-26T02:51:31.154Z,17.23
2022-08-26T02:52:20.352Z,17.23
2022-08-26T02:53:08.759Z,17.22
2022-08-26T02:53:55.734Z,17.20
2022-08-26T02:54:42.871Z,17.21
2022-08-26T02:55:29.841Z,17.21
2022-08-26T02:56:16.761Z,17.23
2022-08-26T02:57:03.932Z,17.27
2022-08-26T02:57:53.532Z,17.27
2022-08-26T02:58:40.540Z,17.32
2022-08-26T02:59:29.519Z,17.28
2022-08-26T03:00:17.213Z,17.24
2022-08-26T03:01:04.869Z,17.20
2022-08-26T03:01:52.612Z,17.20
2022-08-26T03:02:42.971Z,17.21
2022-08-26T03:03:30.341Z,17.20
2022-08-26T03:04:17.303Z,17.17
2022-08-26T03:05:04.591Z,17.17
2022-08-26T03:05:52.673Z,17.16
2022-08-26T03:06:39.797Z,17.19
2022-08-26T03:07:28.412Z,17.13
2022-08-26T03:08:15.751Z,17.11
2022-08-26T03:09:02.670Z,17.16
2022-08-26T03:09:50.331Z,17.16
2022-08-26T03:10:39.461Z,17.18
2022-08-26T03:11:30.947Z,17.18
2022-08-26T03:12:20.562Z,17.14
2022-08-26T03:13:07.707Z,17.12
2022-08-26T03:13:55.429Z,17.07
2022-08-26T03:14:42.411Z,17.11
2022-08-26T03:15:29.363Z,17.12
2022-08-26T03:16:16.770Z,17.12
2022-08-26T03:17:04.180Z,17.07
2022-08-26T03:17:51.062Z,17.10
2022-08-26T03:18:38.113Z,17.10
2022-08-26T03:19:26.339Z,17.11
2022-08-26T03:20:13.764Z,17.12
2022-08-26T03:21:07.212Z,17.10
2022-08-26T03:21:57.748Z,17.07
2022-08-26T03:22:45.674Z,17.05
2022-08-26T03:23:33.351Z,17.03
2022-08-26T03:24:21.452Z,17.05
2022-08-26T03:25:11.703Z,17.07
2022-08-26T03:25:58.595Z,17.03
2022-08-26T03:26:51.991Z,17.05
2022-08-26T03:27:39.861Z,17.02
2022-08-26T03:28:29.861Z,16.98
2022-08-26T03:29:35.384Z,16.94
2022-08-26T03:30:45.489Z,16.93
2022-08-26T03:31:32.700Z,16.93
2022-08-26T03:32:20.858Z,17.00
2022-08-26T03:33:10.332Z,17.02
2022-08-26T03:33:59.818Z,16.99
2022-08-26T03:34:47.012Z,17.00
2022-08-26T03:35:34.911Z,17.01
2022-08-26T03:36:22.352Z,16.96
2022-08-26T03:37:09.224Z,16.95
2022-08-26T03:37:56.594Z,16.90
2022-08-26T03:38:44.141Z,16.90
2022-08-26T03:39:32.613Z,16.89
2022-08-26T03:40:20.576Z,16.89
2022-08-26T03:41:09.213Z,16.90
2022-08-26T03:41:56.022Z,16.85
2022-08-26T03:42:45.402Z,16.87
2022-08-26T03:43:32.312Z,16.86
2022-08-26T03:44:19.382Z,16.85
2022-08-26T03:45:09.054Z,16.86
2022-08-26T03:45:55.831Z,16.86
2022-08-26T03:46:42.793Z,16.86
2022-08-26T03:47:31.831Z,16.86
2022-08-26T03:48:19.071Z,16.87
2022-08-26T03:49:06.311Z,16.87
2022-08-26T03:49:53.406Z,16.91
2022-08-26T03:50:40.671Z,16.93
2022-08-26T03:51:28.433Z,16.92
2022-08-26T03:52:15.612Z,16.89
2022-08-26T03:53:02.801Z,16.89
2022-08-26T03:53:49.601Z,16.90
2022-08-26T03:54:36.401Z,16.89
2022-08-26T03:55:26.905Z,16.86
2022-08-26T03:56:15.165Z,16.90
2022-08-26T03:57:02.312Z,16.87
2022-08-26T03:57:50.112Z,16.85
2022-08-26T03:58:37.981Z,16.85
2022-08-26T03:59:25.005Z,16.83
2022-08-26T04:00:15.461Z,16.79
2022-08-26T04:01:05.528Z,16.79
2022-08-26T04:01:54.733Z,16.82
2022-08-26T04:02:46.404Z,16.84
2022-08-26T04:03:52.449Z,16.84
2022-08-26T04:04:39.901Z,16.84
2022-08-26T04:05:28.330Z,16.83
2022-08-26T04:06:15.391Z,16.82
2022-08-26T04:07:04.152Z,16.88
2022-08-26T04:07:51.593Z,16.93
2022-08-26T04:08:38.671Z,16.93
2022-08-26T04:09:27.680Z,16.93
2022-08-26T04:10:20.258Z,16.94
2022-08-26T04:11:07.659Z,16.94
2022-08-26T04:11:55.392Z,16.93
2022-08-26T04:12:44.252Z,16.93
2022-08-26T04:13:32.541Z,16.98
2022-08-26T04:14:22.371Z,17.05
2022-08-26T04:15:12.735Z,17.07
2022-08-26T04:15:59.928Z,17.09
2022-08-26T04:16:47.542Z,17.07
2022-08-26T04:17:34.771Z,17.10
2022-08-26T04:18:22.311Z,17.12
2022-08-26T04:19:10.632Z,17.16
2022-08-26T04:19:57.861Z,17.12
2022-08-26T04:20:44.632Z,17.17
2022-08-26T04:21:31.790Z,17.19
2022-08-26T04:22:24.963Z,17.22
2022-08-26T04:23:12.032Z,17.21
2022-08-26T04:23:59.272Z,17.18
2022-08-26T04:24:50.691Z,17.19
2022-08-26T04:25:37.531Z,17.23
2022-08-26T04:26:27.361Z,17.24
2022-08-26T04:27:14.435Z,17.30
2022-08-26T04:28:01.442Z,17.38
2022-08-26T04:28:49.680Z,17.42
2022-08-26T04:29:36.571Z,17.40
2022-08-26T04:30:25.692Z,17.48
2022-08-26T04:31:14.868Z,17.49
2022-08-26T04:32:03.260Z,17.50
2022-08-26T04:32:50.181Z,17.52
2022-08-26T04:33:37.040Z,17.51
2022-08-26T04:34:29.085Z,17.57
2022-08-26T04:35:15.981Z,17.66
2022-08-26T04:36:05.591Z,17.65
2022-08-26T04:36:52.542Z,17.72
2022-08-26T04:37:39.801Z,17.74
2022-08-26T04:38:30.502Z,17.82
2022-08-26T04:39:20.291Z,17.87
2022-08-26T04:40:10.219Z,17.93
2022-08-26T04:40:57.572Z,17.99
2022-08-26T04:41:44.992Z,18.03
2022-08-26T04:42:33.473Z,18.10
2022-08-26T04:43:21.165Z,18.16
2022-08-26T04:44:08.212Z,18.20
2022-08-26T04:44:55.558Z,18.25
2022-08-26T04:45:43.764Z,18.30
2022-08-26T04:46:30.820Z,18.28
2022-08-26T04:47:17.661Z,18.35
2022-08-26T04:48:06.393Z,18.41
2022-08-26T04:48:58.043Z,18.47
2022-08-26T04:49:45.243Z,18.54
2022-08-26T04:50:32.881Z,18.60
2022-08-26T04:51:20.774Z,18.68
2022-08-26T04:52:07.562Z,18.73
2022-08-26T04:52:55.474Z,18.72
2022-08-26T04:53:42.581Z,18.76
2022-08-26T04:54:29.491Z,18.84
2022-08-26T04:55:16.352Z,18.88
2022-08-26T04:56:03.881Z,18.98
2022-08-26T04:56:51.093Z,19.03
2022-08-26T04:57:37.964Z,19.06
2022-08-26T04:58:26.251Z,19.09
2022-08-26T04:59:17.055Z,19.06
2022-08-26T05:00:06.933Z,19.03
2022-08-26T05:00:55.232Z,19.11
2022-08-26T05:01:47.149Z,19.18
2022-08-26T05:02:35.074Z,19.31
2022-08-26T05:03:22.912Z,19.38
2022-08-26T05:04:10.270Z,19.41
2022-08-26T05:04:58.879Z,19.46
2022-08-26T05:05:47.666Z,19.57
2022-08-26T05:06:36.940Z,19.61
2022-08-26T05:07:24.201Z,19.66
2022-08-26T05:08:12.410Z,19.69
2022-08-26T05:08:59.294Z,19.70
2022-08-26T05:09:46.170Z,19.73
2022-08-26T05:10:35.233Z,19.71
2022-08-26T05:11:22.183Z,19.71
2022-08-26T05:12:09.883Z,19.65
2022-08-26T05:13:00.455Z,19.71
2022-08-26T05:13:47.562Z,19.82
2022-08-26T05:14:34.341Z,19.85
2022-08-26T05:15:21.252Z,20.01
2022-08-26T05:16:11.627Z,20.10
2022-08-26T05:16:58.798Z,20.21
2022-08-26T05:17:45.555Z,20.38
2022-08-26T05:18:34.322Z,20.55
2022-08-26T05:19:21.991Z,20.68
2022-08-26T05:20:09.232Z,20.70
2022-08-26T05:20:57.631Z,20.69
2022-08-26T05:21:44.462Z,20.78
2022-08-26T05:22:33.992Z,20.82
2022-08-26T05:23:22.986Z,20.77
2022-08-26T05:24:11.991Z,20.67
2022-08-26T05:24:58.731Z,20.67
2022-08-26T05:25:48.436Z,20.72
2022-08-26T05:26:35.183Z,20.63
2022-08-26T05:27:22.028Z,20.65
2022-08-26T05:28:10.508Z,20.72
2022-08-26T05:28:58.101Z,20.75
2022-08-26T05:29:45.521Z,20.69
2022-08-26T05:30:32.879Z,20.62
2022-08-26T05:31:24.337Z,20.64
2022-08-26T05:32:11.270Z,20.70
2022-08-26T05:32:58.263Z,20.66
2022-08-26T05:33:46.921Z,20.74
2022-08-26T05:34:33.822Z,20.79
2022-08-26T05:35:20.555Z,20.77
2022-08-26T05:36:11.183Z,20.84
2022-08-26T05:36:58.723Z,20.89
2022-08-26T05:37:45.572Z,20.96
2022-08-26T05:38:32.379Z,21.06
2022-08-26T05:39:20.011Z,21.05
2022-08-26T05:40:08.624Z,20.99
2022-08-26T05:40:57.934Z,21.01
2022-08-26T05:41:45.042Z,21.07
2022-08-26T05:42:33.582Z,21.13
2022-08-26T05:43:20.901Z,21.23
2022-08-26T05:44:10.371Z,21.31
2022-08-26T05:44:57.489Z,21.37
2022-08-26T05:45:47.263Z,21.47
2022-08-26T05:46:35.400Z,21.54
2022-08-26T05:47:22.335Z,21.53
2022-08-26T05:48:10.492Z,21.56
2022-08-26T05:48:57.755Z,21.60
2022-08-26T05:49:51.450Z,21.65
2022-08-26T05:50:44.199Z,21.64
2022-08-26T05:51:31.146Z,21.68
2022-08-26T05:52:18.054Z,21.76
2022-08-26T05:53:07.416Z,21.82
2022-08-26T05:53:56.282Z,21.79
2022-08-26T05:54:43.131Z,21.82
2022-08-26T05:55:30.087Z,21.90
2022-08-26T05:56:17.592Z,21.97
2022-08-26T05:57:04.632Z,22.00
2022-08-26T05:57:51.579Z,22.01
2022-08-26T05:58:40.865Z,22.01
2022-08-26T05:59:27.801Z,22.08
2022-08-26T06:00:16.331Z,22.11
2022-08-26T06:01:13.355Z,22.16
2022-08-26T06:02:00.226Z,22.24
2022-08-26T06:02:48.403Z,22.25
2022-08-26T06:03:37.572Z,22.30
2022-08-26T06:04:27.810Z,22.35
2022-08-26T06:05:16.675Z,22.41
2022-08-26T06:06:08.554Z,22.43
2022-08-26T06:06:58.142Z,22.42
2022-08-26T06:08:03.860Z,22.46
2022-08-26T06:08:51.616Z,22.49
2022-08-26T06:09:38.752Z,22.55
2022-08-26T06:10:33.149Z,22.61
2022-08-26T06:11:26.922Z,22.67
2022-08-26T06:12:13.883Z,22.73
2022-08-26T06:13:09.234Z,22.81
2022-08-26T06:14:03.996Z,22.87
2022-08-26T06:14:51.423Z,23.02
2022-08-26T06:15:46.330Z,23.09
2022-08-26T06:16:35.957Z,23.11
2022-08-26T06:17:22.760Z,23.13
2022-08-26T06:18:10.691Z,23.19
2022-08-26T06:18:57.832Z,23.24
2022-08-26T06:19:44.675Z,23.30
2022-08-26T06:20:32.290Z,23.37
2022-08-26T06:21:32.502Z,23.46
2022-08-26T06:22:38.531Z,23.53
2022-08-26T06:23:46.326Z,23.64
2022-08-26T06:24:52.142Z,23.70
2022-08-26T06:25:39.410Z,23.80
2022-08-26T06:26:26.597Z,23.85
2022-08-26T06:27:15.163Z,23.84
2022-08-26T06:28:02.500Z,23.84
2022-08-26T06:28:50.082Z,23.83
2022-08-26T06:29:37.811Z,23.87
2022-08-26T06:30:24.805Z,23.93
2022-08-26T06:31:12.856Z,24.04
2022-08-26T06:32:00.541Z,24.12
2022-08-26T06:32:47.483Z,24.14
2022-08-26T06:33:36.581Z,24.18
2022-08-26T06:34:29.787Z,24.03
2022-08-26T06:35:17.343Z,24.09
2022-08-26T06:36:04.462Z,23.94
2022-08-26T06:36:53.112Z,24.01
2022-08-26T06:37:40.780Z,24.07
2022-08-26T06:38:28.974Z,24.04
2022-08-26T06:39:17.952Z,24.15
2022-08-26T06:40:07.830Z,24.17
2022-08-26T06:40:59.766Z,24.18
2022-08-26T06:41:46.903Z,24.20
2022-08-26T06:42:34.042Z,24.21
2022-08-26T06:43:23.973Z,24.17
2022-08-26T06:44:12.915Z,24.21
2022-08-26T06:44:59.948Z,24.31
2022-08-26T06:45:47.491Z,24.35
2022-08-26T06:46:35.107Z,24.41
2022-08-26T06:47:22.326Z,24.44
2022-08-26T06:48:09.339Z,24.45
2022-08-26T06:49:00.443Z,24.48
2022-08-26T06:49:47.466Z,24.52
2022-08-26T06:50:35.395Z,24.58
2022-08-26T06:51:26.432Z,24.56
2022-08-26T06:52:13.411Z,24.44
2022-08-26T06:53:00.283Z,24.32
2022-08-26T06:53:49.053Z,24.32
2022-08-26T06:54:37.233Z,24.29
2022-08-26T06:55:27.131Z,24.36
2022-08-26T06:56:17.113Z,24.49
2022-08-26T06:57:04.055Z,24.57
2022-08-26T06:57:51.081Z,24.63
2022-08-26T06:58:39.394Z,24.71
2022-08-26T06:59:28.501Z,24.76
2022-08-26T07:00:18.481Z,24.74
2022-08-26T07:01:15.849Z,24.81
2022-08-26T07:02:06.307Z,24.93
2022-08-26T07:02:55.196Z,24.97
2022-08-26T07:03:42.132Z,25.01
2022-08-26T07:04:34.831Z,25.04
2022-08-26T07:05:22.632Z,25.00
2022-08-26T07:06:11.030Z,24.94
2022-08-26T07:06:58.131Z,25.03
2022-08-26T07:07:45.044Z,25.03
2022-08-26T07:08:31.992Z,25.03
2022-08-26T07:09:22.951Z,25.13
2022-08-26T07:10:10.301Z,25.16
2022-08-26T07:10:57.373Z,25.04
2022-08-26T07:11:44.820Z,25.06
2022-08-26T07:12:32.435Z,25.16
2022-08-26T07:13:29.969Z,25.23
2022-08-26T07:14:21.199Z,25.17
2022-08-26T07:15:08.891Z,25.23
2022-08-26T07:15:58.195Z,25.21
2022-08-26T07:16:50.727Z,25.26
2022-08-26T07:17:39.011Z,25.27
2022-08-26T07:18:27.358Z,25.17
2022-08-26T07:19:15.636Z,25.30
2022-08-26T07:20:07.570Z,25.32
2022-08-26T07:20:54.880Z,25.37
2022-08-26T07:21:43.159Z,25.37
2022-08-26T07:22:30.543Z,25.26
2022-08-26T07:23:17.398Z,25.37
2022-08-26T07:24:04.636Z,25.36
2022-08-26T07:24:51.556Z,25.37
2022-08-26T07:25:40.179Z,25.30
2022-08-26T07:26:29.330Z,25.27
2022-08-26T07:27:17.149Z,25.37
2022-08-26T07:28:04.462Z,25.37
2022-08-26T07:28:53.486Z,25.44
2022-08-26T07:29:41.024Z,25.36
2022-08-26T07:30:27.876Z,25.44
2022-08-26T07:31:15.896Z,25.44
2022-08-26T07:32:03.502Z,25.39
2022-08-26T07:32:50.466Z,25.38
2022-08-26T07:33:39.117Z,25.31
2022-08-26T07:34:26.304Z,25.35
2022-08-26T07:35:14.318Z,25.41
2022-08-26T07:36:01.388Z,25.30
2022-08-26T07:36:51.806Z,25.38
2022-08-26T07:37:39.338Z,25.31
2022-08-26T07:38:26.326Z,25.36
2022-08-26T07:39:13.166Z,25.42
2022-08-26T07:40:00.231Z,25.47
2022-08-26T07:40:48.229Z,25.54
2022-08-26T07:41:36.723Z,25.61
2022-08-26T07:42:24.063Z,25.66
2022-08-26T07:43:11.008Z,25.63
2022-08-26T07:43:57.806Z,25.63
2022-08-26T07:44:45.855Z,25.72
2022-08-26T07:45:32.985Z,25.78
2022-08-26T07:46:27.147Z,25.82
2022-08-26T07:47:24.870Z,25.90
2022-08-26T07:48:13.308Z,25.92
2022-08-26T07:49:00.267Z,26.02
2022-08-26T07:49:47.260Z,26.08
2022-08-26T07:50:49.011Z,25.98
2022-08-26T07:51:37.845Z,25.99
2022-08-26T07:52:27.717Z,26.04
2022-08-26T07:53:15.069Z,26.12
2022-08-26T07:54:07.013Z,26.19
2022-08-26T07:54:54.236Z,26.25
2022-08-26T07:55:41.357Z,26.31
2022-08-26T07:56:28.438Z,26.36
2022-08-26T07:57:15.306Z,26.38
2022-08-26T07:58:06.540Z,26.44
2022-08-26T07:58:54.422Z,26.53
2022-08-26T07:59:41.607Z,26.56
2022-08-26T08:00:29.820Z,26.60
2022-08-26T08:01:16.807Z,26.65
2022-08-26T08:02:03.917Z,26.71
2022-08-26T08:02:51.526Z,26.72
2022-08-26T08:03:42.456Z,26.76
2022-08-26T08:04:29.597Z,26.84
2022-08-26T08:05:18.707Z,26.92
2022-08-26T08:06:05.800Z,26.95
2022-08-26T08:06:53.296Z,26.93
2022-08-26T08:07:44.839Z,26.90
2022-08-26T08:08:33.096Z,26.94
2022-08-26T08:09:20.086Z,27.03
2022-08-26T08:10:11.634Z,27.11
2022-08-26T08:10:58.841Z,27.11
2022-08-26T08:11:46.868Z,27.12
2022-08-26T08:12:35.276Z,27.12
2022-08-26T08:13:22.797Z,27.15
2022-08-26T08:14:11.836Z,27.21
2022-08-26T08:14:58.857Z,27.22
2022-08-26T08:15:46.386Z,27.23
2022-08-26T08:16:33.602Z,27.28
2022-08-26T08:17:21.767Z,27.20
2022-08-26T08:18:15.434Z,27.16
2022-08-26T08:19:02.846Z,27.19
2022-08-26T08:19:50.696Z,27.18
2022-08-26T08:20:37.616Z,27.27
2022-08-26T08:21:26.272Z,27.28
2022-08-26T08:22:17.386Z,27.24
2022-08-26T08:23:04.718Z,27.08
2022-08-26T08:23:56.439Z,27.05
2022-08-26T08:24:43.776Z,27.09
2022-08-26T08:25:32.526Z,27.11
2022-08-26T08:26:19.653Z,27.21
2022-08-26T08:27:07.057Z,27.22
2022-08-26T08:27:55.616Z,27.31
2022-08-26T08:28:44.056Z,27.37
2022-08-26T08:29:30.993Z,27.31
2022-08-26T08:30:20.886Z,27.24
2022-08-26T08:31:11.474Z,27.21
2022-08-26T08:31:59.988Z,27.28
2022-08-26T08:32:47.426Z,27.07
2022-08-26T08:33:35.481Z,27.12
2022-08-26T08:34:23.007Z,27.20
2022-08-26T08:35:12.619Z,27.26
2022-08-26T08:36:00.420Z,27.32
2022-08-26T08:36:47.752Z,27.36
2022-08-26T08:37:36.668Z,27.42
2022-08-26T08:38:24.076Z,27.46
2022-08-26T08:39:11.926Z,27.64
2022-08-26T08:39:59.827Z,27.67
2022-08-26T08:40:47.136Z,27.63
2022-08-26T08:41:53.528Z,27.64
2022-08-26T08:43:24.885Z,27.63
2022-08-26T08:45:23.737Z,27.85
2022-08-26T08:46:13.276Z,27.67
2022-08-26T08:47:06.226Z,27.68
2022-08-26T08:47:59.757Z,27.69
2022-08-26T08:48:53.940Z,27.73
2022-08-26T08:49:42.316Z,27.63
2022-08-26T08:50:43.441Z,27.61
2022-08-26T08:51:50.577Z,27.64
2022-08-26T08:52:38.166Z,27.79
2022-08-26T08:53:36.025Z,27.84
2022-08-26T08:54:26.526Z,27.73
2022-08-26T08:55:17.751Z,27.75
2022-08-26T08:56:10.876Z,27.64
2022-08-26T08:57:04.046Z,27.72
2022-08-26T08:58:02.447Z,27.68
2022-08-26T08:59:07.548Z,27.78
2022-08-26T09:00:05.737Z,27.90
2022-08-26T09:01:00.263Z,27.81
2022-08-26T09:01:52.447Z,27.82
2022-08-26T09:03:31.116Z,27.87
2022-08-26T09:04:26.986Z,27.96
2022-08-26T09:05:25.573Z,27.93
2022-08-26T09:06:18.864Z,28.02
2022-08-26T09:07:11.035Z,28.13
2022-08-26T09:08:11.295Z,28.22
2022-08-26T09:08:58.256Z,28.32
2022-08-26T09:09:50.257Z,28.27
2022-08-26T09:10:45.128Z,28.27
2022-08-26T09:11:32.713Z,28.31
2022-08-26T09:12:29.846Z,28.20
2022-08-26T09:13:19.590Z,28.22
2022-08-26T09:14:13.236Z,28.26
2022-08-26T09:15:12.227Z,28.25
2022-08-26T09:16:06.897Z,28.19
2022-08-26T09:17:06.294Z,28.36
2022-08-26T09:18:06.696Z,28.39
2022-08-26T09:19:08.885Z,28.38
2022-08-26T09:20:06.277Z,28.45
2022-08-26T09:21:14.392Z,28.48
2022-08-26T09:22:04.738Z,28.54
2022-08-26T09:22:56.977Z,28.62
2022-08-26T09:23:47.005Z,28.61
2022-08-26T09:24:41.772Z,28.65
2022-08-26T09:25:46.122Z,28.59
2022-08-26T09:26:39.581Z,28.63
2022-08-26T09:27:50.431Z,28.62
2022-08-26T09:28:42.503Z,28.72
2022-08-26T09:29:32.648Z,28.67
2022-08-26T09:30:30.590Z,28.71
2022-08-26T09:31:24.349Z,28.68
2022-08-26T09:32:24.450Z,28.57
2022-08-26T09:33:17.067Z,28.61
2022-08-26T09:34:22.617Z,28.65
2022-08-26T09:35:32.120Z,28.81
2022-08-26T09:36:26.386Z,28.80
2022-08-26T09:37:14.118Z,28.64
2022-08-26T09:38:00.976Z,28.56
2022-08-26T09:38:52.414Z,28.58
2022-08-26T09:39:39.696Z,28.62
2022-08-26T09:40:34.643Z,28.66
2022-08-26T09:41:34.035Z,28.76
2022-08-26T09:42:22.941Z,28.87
2022-08-26T09:43:22.150Z,28.94
2022-08-26T09:44:14.740Z,28.94
2022-08-26T09:45:06.716Z,28.97
2022-08-26T09:45:59.319Z,28.92
2022-08-26T09:46:54.716Z,28.81
2022-08-26T09:47:47.999Z,28.87
2022-08-26T09:48:37.196Z,28.87
2022-08-26T09:49:37.496Z,28.76
2022-08-26T09:50:33.866Z,28.55
2022-08-26T09:51:23.487Z,28.68
2022-08-26T09:52:22.468Z,28.76
2022-08-26T09:53:12.939Z,28.88
2022-08-26T09:54:02.040Z,28.97
2022-08-26T09:55:24.196Z,29.04
2022-08-26T09:56:23.666Z,29.10
2022-08-26T09:57:21.328Z,29.15
2022-08-26T09:58:09.588Z,29.23
2022-08-26T09:58:57.364Z,29.15
2022-08-26T09:59:44.559Z,29.03
2022-08-26T10:00:39.200Z,29.06
2022-08-26T10:01:36.194Z,29.10
2022-08-26T10:02:32.518Z,29.11
2022-08-26T10:03:38.696Z,29.16
2022-08-26T10:04:30.887Z,29.18
2022-08-26T10:05:30.187Z,29.16
2022-08-26T10:06:17.067Z,29.20
2022-08-26T10:07:10.276Z,29.24
2022-08-26T10:07:59.594Z,29.12
2022-08-26T10:08:50.379Z,29.15
2022-08-26T10:09:43.268Z,29.01
2022-08-26T10:10:37.049Z,28.98
2022-08-26T10:11:35.496Z,28.99
2022-08-26T10:12:23.313Z,29.06
2022-08-26T10:13:17.136Z,29.00
2022-08-26T10:14:39.976Z,29.02
2022-08-26T10:15:27.838Z,29.04
2022-08-26T10:16:24.334Z,29.18
2022-08-26T10:17:32.467Z,29.30
2022-08-26T10:18:29.695Z,29.41
2022-08-26T10:19:23.207Z,29.52
2022-08-26T10:20:23.654Z,29.51
2022-08-26T10:21:18.003Z,29.56
2022-08-26T10:22:26.366Z,29.64
2022-08-26T10:23:26.466Z,29.62
2022-08-26T10:24:17.761Z,29.48
2022-08-26T10:25:12.119Z,29.60
2022-08-26T10:26:21.136Z,29.69
2022-08-26T10:27:51.010Z,29.66
2022-08-26T10:28:50.336Z,29.62
2022-08-26T10:29:46.461Z,29.74
2022-08-26T10:30:46.596Z,29.82
2022-08-26T10:31:58.756Z,29.68
2022-08-26T10:32:54.077Z,29.67
2022-08-26T10:33:41.082Z,29.73
2022-08-26T10:34:27.967Z,29.67
2022-08-26T10:35:16.962Z,29.70
2022-08-26T10:36:07.306Z,29.86
2022-08-26T10:37:13.536Z,29.93
2022-08-26T10:38:09.506Z,29.92
2022-08-26T10:38:59.176Z,29.92
2022-08-26T10:39:49.467Z,30.00
2022-08-26T10:41:11.886Z,30.15
2022-08-26T10:42:07.914Z,30.31
2022-08-26T10:43:11.403Z,30.36
2022-08-26T10:44:00.427Z,30.32
2022-08-26T10:44:48.527Z,30.29
2022-08-26T10:45:42.446Z,30.24
2022-08-26T10:46:39.989Z,30.28
2022-08-26T10:47:49.127Z,30.28
2022-08-26T10:48:53.709Z,30.23
2022-08-26T10:49:42.036Z,30.26
2022-08-26T10:50:47.667Z,30.42
2022-08-26T10:51:42.273Z,30.36
2022-08-26T10:52:53.188Z,30.43